Time;durP1;ratioP1;P1;durP2;ratioP2;P2;SDS_P1;SDS_P2;PMS_P1;PMS_P2;Temp;Humidity;BMP_temperature;BMP_pressure;BME280_temperature;BME280_humidity;BME280_pressure;Samples;Min_cycle;Max_cycle;Signal;HPM_P1;HPM_P2
2022/11/04 00:01:03;;;;;;;;;;;;;;;-148.88;100.00;74775.97;5076165;28;19909;-76
2022/11/04 00:03:29;;;;;;;;;;;;;;;-148.88;100.00;74771.91;5075715;28;19912;-76
2022/11/04 00:05:54;;;;;;;;;;;;;;;-148.88;100.00;74769.88;5075117;28;19908;-76
2022/11/04 00:08:25;;;;;;;;;;;;;;;-148.88;100.00;74773.94;5075682;28;20367;-76
2022/11/04 00:13:37;;;;;;;;;;;;;;;-148.88;100.00;74769.88;5076291;28;19920;-76
2022/11/04 00:18:46;;;;;;;;;;;;;;;-148.88;100.00;74759.72;5075836;28;20290;-76
2022/11/04 00:29:23;;;;;;;;;;;;;;;-148.88;100.00;74761.75;5075366;28;19931;-76
2022/11/04 00:34:32;;;;;;;;;;;;;;;-148.88;100.00;74771.91;5075531;28;19985;-76
2022/11/04 00:36:58;;;;;;;;;;;;;;;-148.88;100.00;74773.94;5075170;28;19912;-76
2022/11/04 00:39:23;;;;;;;;;;;;;;;-148.88;100.00;74759.72;5075378;28;19958;-76
2022/11/04 00:41:49;;;;;;;;;;;;;;;-148.88;100.00;74745.50;5075103;28;20011;-76
2022/11/04 00:44:14;;;;;;;;;;;;;;;-148.88;100.00;74747.53;5075004;28;19912;-77
2022/11/04 00:46:39;;;;;;;;;;;;;;;-148.88;100.00;74757.69;5074937;28;20294;-77
2022/11/04 00:49:04;;;;;;;;;;;;;;;-148.88;100.00;74761.75;5075075;28;19908;-76
2022/11/04 00:51:29;;;;;;;;;;;;;;;-148.88;100.00;74757.69;5074800;28;20007;-76
2022/11/04 00:53:56;;;;;;;;;;;;;;;-148.88;100.00;74761.75;5074820;28;19908;-76
2022/11/04 00:56:22;;;;;;;;;;;;;;;-148.88;100.00;74761.75;5056742;28;19909;-76
2022/11/04 00:58:48;;;;;;;;;;;;;;;-148.88;100.00;74765.81;5074689;28;19916;-76
2022/11/04 01:01:17;;;;;;;;;;;;;;;-148.88;100.00;74761.75;5056726;28;19915;-76
2022/11/04 01:03:46;;;;;;;;;;;;;;;-148.88;100.00;74769.88;5074914;28;19916;-76
2022/11/04 01:06:12;;;;;;;;;;;;;;;-148.88;100.00;74773.94;5074560;28;19935;-76
2022/11/04 01:08:37;;;;;;;;;;;;;;;-148.88;100.00;74773.94;5074528;28;20298;-76
2022/11/04 01:11:03;;;;;;;;;;;;;;;-148.88;100.00;74778.00;5074755;28;19908;-76
2022/11/04 01:13:28;;;;;;;;;;;;;;;-148.88;100.00;74765.81;5074751;28;19916;-76
2022/11/04 01:15:53;;;;;;;;;;;;;;;-148.88;100.00;74759.72;5056017;28;19908;-76
2022/11/04 01:18:18;;;;;;;;;;;;;;;-148.88;100.00;74761.75;5073934;28;20286;-76
2022/11/04 01:20:44;;;;;;;;;;;;;;;-148.88;100.00;74771.91;5074253;28;19975;-76
2022/11/04 01:23:09;;;;;;;;;;;;;;;-148.88;100.00;74773.94;5074234;28;19955;-76
2022/11/04 01:25:38;;;;;;;;;;;;;;;-148.88;100.00;74790.19;5074251;28;19913;-76
2022/11/04 01:28:03;;;;;;;;;;;;;;;-148.88;100.00;74790.19;5074105;28;19918;-76
2022/11/04 01:30:28;;;;;;;;;;;;;;;-148.88;100.00;74794.25;5074301;28;19908;-76
2022/11/04 01:32:53;;;;;;;;;;;;;;;-148.88;100.00;74810.50;5074315;28;20333;-76
2022/11/04 01:35:18;;;;;;;;;;;;;;;-148.88;100.00;74828.75;5074038;28;19931;-76
2022/11/04 01:37:44;;;;;;;;;;;;;;;-148.88;100.00;74836.88;5074230;28;19908;-76
2022/11/04 01:40:09;;;;;;;;;;;;;;;-148.88;100.00;74832.81;5073938;28;19915;-76
2022/11/04 01:42:34;;;;;;;;;;;;;;;-148.88;100.00;74847.03;5073823;28;20268;-76
2022/11/04 01:45:00;;;;;;;;;;;;;;;-148.88;100.00;74845.00;5055890;28;20345;-76
2022/11/04 01:47:27;;;;;;;;;;;;;;;-148.88;100.00;74863.28;5074006;28;19931;-76
2022/11/04 01:49:55;;;;;;;;;;;;;;;-148.88;100.00;74881.56;5055820;28;19915;-76
2022/11/04 01:52:40;;;;;;;;;;;;;;;-148.88;100.00;74887.66;5055748;28;19915;-76
2022/11/04 01:55:08;;;;;;;;;;;;;;;-148.88;99.63;74907.97;5073672;28;19933;-76
2022/11/04 01:57:37;;;;;;;;;;;;;;;-148.88;98.99;74914.06;5074176;28;19908;-76
2022/11/04 02:00:04;;;;;;;;;;;;;;;-148.88;98.62;74918.13;5073780;28;20370;-76
2022/11/04 02:02:30;;;;;;;;;;;;;;;-148.88;99.17;74920.16;5073327;28;19912;-76
2022/11/04 02:04:56;;;;;;;;;;;;;;;-148.88;99.35;74924.22;5073495;28;19915;-76
2022/11/04 02:07:22;;;;;;;;;;;;;;;-148.88;99.98;74926.25;5073350;28;20329;-76
2022/11/04 02:09:48;;;;;;;;;;;;;;;-148.88;100.00;74934.38;5073499;28;19955;-76
2022/11/04 02:14:57;;;;;;;;;;;;;;;-148.88;100.00;74936.41;5074052;28;19957;-76
2022/11/04 02:17:30;;;;;;;;;;;;;;;-148.88;100.00;74956.69;5073390;28;19908;-76
2022/11/04 02:20:17;;;;;;;;;;;;;;;-148.88;100.00;74977.00;5073780;28;20015;-76
2022/11/04 02:22:51;;;;;;;;;;;;;;;-148.88;100.00;74958.72;5073204;28;20362;-76
2022/11/04 02:25:35;;;;;;;;;;;;;;;-148.88;100.00;74960.75;5073200;28;19909;-77
2022/11/04 02:28:12;;;;;;;;;;;;;;;-148.88;100.00;74952.63;5072911;28;19920;-76
2022/11/04 02:30:47;;;;;;;;;;;;;;;-148.88;100.00;74952.63;5073176;28;20003;-76
2022/11/04 02:33:18;;;;;;;;;;;;;;;-148.88;100.00;74968.88;5073137;28;19908;-76
2022/11/04 02:35:49;;;;;;;;;;;;;;;-148.88;100.00;74956.69;5073133;28;19931;-76
2022/11/04 02:38:17;;;;;;;;;;;;;;;-148.88;100.00;74970.91;5073174;28;19908;-76
2022/11/04 02:40:56;;;;;;;;;;;;;;;-148.88;100.00;74966.84;5073011;28;19909;-76
2022/11/04 02:43:29;;;;;;;;;;;;;;;-148.88;100.00;74956.69;5073426;28;19908;-76
2022/11/04 02:46:08;;;;;;;;;;;;;;;-148.88;100.00;74966.84;5054999;28;19909;-76
2022/11/04 02:48:41;;;;;;;;;;;;;;;-148.88;100.00;74977.00;5073029;28;19944;-76
2022/11/04 02:51:12;;;;;;;;;;;;;;;-148.88;100.00;74981.06;5073090;28;20291;-76
2022/11/04 02:53:40;;;;;;;;;;;;;;;-148.88;100.00;74985.13;5072991;28;19912;-76
2022/11/04 02:56:06;;;;;;;;;;;;;;;-148.88;100.00;74989.19;5072936;28;19916;-76
2022/11/04 02:58:35;;;;;;;;;;;;;;;-148.88;100.00;74993.25;5073195;28;19908;-76
2022/11/04 03:01:02;;;;;;;;;;;;;;;-148.88;100.00;74995.28;5072811;28;19953;-76
2022/11/04 03:03:30;;;;;;;;;;;;;;;-148.88;100.00;74989.19;5072868;28;19912;-76
2022/11/04 03:05:55;;;;;;;;;;;;;;;-148.88;100.00;74989.19;5072792;28;19909;-77
2022/11/04 03:08:31;;;;;;;;;;;;;;;-148.88;100.00;74991.22;5073125;28;19915;-76
2022/11/04 03:11:00;;;;;;;;;;;;;;;-148.88;100.00;74999.34;5073062;28;19916;-76
2022/11/04 03:13:32;;;;;;;;;;;;;;;-148.88;99.51;74999.34;5072807;28;19995;-76
2022/11/04 03:15:59;;;;;;;;;;;;;;;-148.88;99.93;75005.44;5072746;28;20432;-76
2022/11/04 03:18:33;;;;;;;;;;;;;;;-148.88;100.00;75009.50;5072804;28;19909;-76
2022/11/04 03:21:01;;;;;;;;;;;;;;;-148.88;100.00;75007.47;5072750;28;19918;-76
2022/11/04 03:23:26;;;;;;;;;;;;;;;-148.88;99.71;75009.50;5073057;28;19909;-76
2022/11/04 03:25:55;;;;;;;;;;;;;;;-148.88;99.83;75013.56;5072744;28;19946;-76
2022/11/04 03:28:31;;;;;;;;;;;;;;;-148.88;99.27;75019.66;5054826;28;19908;-76
2022/11/04 03:30:59;;;;;;;;;;;;;;;-148.88;99.86;75027.78;5073118;28;19915;-76
2022/11/04 03:33:34;;;;;;;;;;;;;;;-148.88;99.37;75037.94;5072714;28;20324;-76
2022/11/04 03:36:01;;;;;;;;;;;;;;;-148.88;99.42;75062.31;5073090;28;19908;-76
2022/11/04 03:38:27;;;;;;;;;;;;;;;-148.88;99.60;75070.44;5072689;28;19909;-76
2022/11/04 03:40:52;;;;;;;;;;;;;;;-148.88;99.54;75052.16;5075058;28;20043;-76
2022/11/04 03:43:22;;;;;;;;;;;;;;;-148.88;99.33;75076.53;5076281;28;19923;-76
2022/11/04 03:45:48;;;;;;;;;;;;;;;-148.88;99.87;75084.66;5076549;28;20380;-76
2022/11/04 03:48:14;;;;;;;;;;;;;;;-148.88;99.98;75082.63;5076210;28;20370;-76
2022/11/04 03:50:43;;;;;;;;;;;;;;;-148.88;99.94;75078.56;5076117;28;19915;-76
2022/11/04 03:53:09;;;;;;;;;;;;;;;-148.88;100.00;75088.72;5076140;28;19995;-76
2022/11/04 03:55:53;;;;;;;;;;;;;;;-148.88;100.00;75098.84;5076150;28;20008;-76
2022/11/04 03:58:30;;;;;;;;;;;;;;;-148.88;100.00;75098.84;5058040;28;19955;-76
2022/11/04 04:03:40;;;;;;;;;;;;;;;-148.88;100.00;75115.09;5084798;22;19944;-91
2022/11/04 04:06:12;;;;;;;;;;;;;;;-148.88;100.00;75117.13;5077297;28;19912;-92
2022/11/04 04:08:41;;;;;;;;;;;;;;;-148.88;100.00;75113.06;5076260;28;19913;-92
2022/11/04 04:11:29;;;;;;;;;;;;;;;-148.88;100.00;75131.34;5058310;28;19908;-90
2022/11/04 04:14:00;;;;;;;;;;;;;;;-148.88;100.00;75131.34;5077513;28;19915;-90
2022/11/04 04:16:38;;;;;;;;;;;;;;;-148.88;100.00;75115.09;5078326;28;20308;-91
2022/11/04 04:19:03;;;;;;;;;;;;;;;-148.88;100.00;75113.06;5080039;28;20374;-90
2022/11/04 04:21:32;;;;;;;;;;;;;;;-148.88;100.00;75106.97;5081019;28;19915;-89
2022/11/04 04:29:28;;;;;;;;;;;;;;;-148.88;100.00;75115.09;5076790;28;19935;-91
2022/11/04 04:31:56;;;;;;;;;;;;;;;-148.88;100.00;75111.03;5076807;28;19908;-89
2022/11/04 04:34:26;;;;;;;;;;;;;;;-148.88;100.00;75119.16;5076402;28;19999;-90
2022/11/04 04:36:57;;;;;;;;;;;;;;;-148.88;100.00;75127.28;5075771;28;19916;-90
2022/11/04 04:44:59;;;;;;;;;;;;;;;-148.88;100.00;75147.59;5078412;28;20431;-94
2022/11/04 04:47:26;;;;;;;;;;;;;;;-148.88;100.00;75147.59;5080215;28;19930;-93
2022/11/04 04:49:52;;;;;;;;;;;;;;;-148.88;100.00;75135.41;5067854;28;20381;-93
2022/11/04 04:52:18;;;;;;;;;;;;;;;-148.88;99.87;75139.47;5086824;28;19908;-94
2022/11/04 04:54:43;;;;;;;;;;;;;;;-148.88;100.00;75147.59;5085799;28;20387;-93
2022/11/04 04:57:09;;;;;;;;;;;;;;;-148.88;100.00;75151.66;5090343;28;19986;-93
2022/11/04 04:59:34;;;;;;;;;;;;;;;-148.88;100.00;75151.66;5085402;28;20283;-94
2022/11/04 05:01:59;;;;;;;;;;;;;;;-148.88;100.00;75167.91;5079505;28;19934;-93
2022/11/04 05:04:24;;;;;;;;;;;;;;;-148.88;100.00;75163.84;5085919;28;19915;-93
2022/11/04 05:06:50;;;;;;;;;;;;;;;-148.88;100.00;75163.84;5087441;28;19908;-94
2022/11/04 05:09:15;;;;;;;;;;;;;;;-148.88;99.79;75169.94;5084682;28;19912;-94
2022/11/04 05:11:40;;;;;;;;;;;;;;;-148.88;99.85;75174.00;5083702;28;19908;-94
2022/11/04 05:14:05;;;;;;;;;;;;;;;-148.88;99.89;75176.03;5073953;28;19908;-94
2022/11/04 05:16:30;;;;;;;;;;;;;;;-148.88;100.00;75186.19;5083033;28;19915;-91
2022/11/04 05:18:55;;;;;;;;;;;;;;;-148.88;100.00;75196.34;5091438;28;19892;-94
2022/11/04 05:21:21;;;;;;;;;;;;;;;-148.88;100.00;75194.31;5087684;28;19942;-92
2022/11/04 05:23:46;;;;;;;;;;;;;;;-148.88;100.00;75198.38;5085121;28;19915;-92
2022/11/04 05:26:12;;;;;;;;;;;;;;;-148.88;99.90;75208.53;5079814;28;20363;-93
2022/11/04 05:28:37;;;;;;;;;;;;;;;-148.88;99.69;75204.47;5081479;28;19913;-92
2022/11/04 05:31:04;;;;;;;;;;;;;;;-148.88;98.82;75214.63;5078996;28;19908;-92
2022/11/04 05:33:29;;;;;;;;;;;;;;;-148.88;98.56;75216.66;5065040;28;19912;-91
2022/11/04 05:35:54;;;;;;;;;;;;;;;-148.88;98.56;75208.53;5057372;28;20366;-91
2022/11/04 05:38:19;;;;;;;;;;;;;;;-148.88;98.67;75210.56;5074642;28;19908;-91
2022/11/04 05:40:45;;;;;;;;;;;;;;;-148.88;98.90;75208.53;5074544;28;19940;-88
2022/11/04 05:43:10;;;;;;;;;;;;;;;-148.88;99.10;75212.59;5056422;28;19915;-89
2022/11/04 05:45:35;;;;;;;;;;;;;;;-148.88;99.24;75224.78;5074985;28;19908;-91
2022/11/04 05:48:01;;;;;;;;;;;;;;;-148.88;98.57;75226.81;5075304;28;19923;-90
2022/11/04 05:50:28;;;;;;;;;;;;;;;-148.88;98.75;75232.91;5074724;28;20031;-90
2022/11/04 05:52:58;;;;;;;;;;;;;;;-148.88;98.64;75236.97;5075674;28;19908;-91
2022/11/04 05:55:27;;;;;;;;;;;;;;;-148.88;98.94;75234.94;5075124;28;19995;-91
2022/11/04 05:57:52;;;;;;;;;;;;;;;-148.88;98.33;75228.84;5073796;28;19958;-90
2022/11/04 06:00:18;;;;;;;;;;;;;;;-148.88;97.77;75224.78;5075246;28;19908;-89
2022/11/04 06:02:43;;;;;;;;;;;;;;;-148.88;97.89;75216.66;5073755;28;19913;-88
2022/11/04 06:05:08;;;;;;;;;;;;;;;-148.88;97.87;75218.69;5075377;28;19912;-90
2022/11/04 06:07:34;;;;;;;;;;;;;;;-148.88;98.55;75228.84;5075305;28;19948;-92
2022/11/04 06:09:59;;;;;;;;;;;;;;;-148.88;98.00;75220.72;5076258;28;20432;-91
2022/11/04 06:12:25;;;;;;;;;;;;;;;-148.88;97.99;75224.78;5076049;28;20384;-93
2022/11/04 06:14:50;;;;;;;;;;;;;;;-148.88;98.73;75232.91;5058586;28;19915;-92
2022/11/04 06:17:16;;;;;;;;;;;;;;;-148.88;98.94;75236.97;5059583;28;20378;-94
2022/11/04 06:19:42;;;;;;;;;;;;;;;-148.88;98.49;75245.09;5077714;28;19914;-93
2022/11/04 06:22:08;;;;;;;;;;;;;;;-148.88;97.92;75257.28;5076272;28;19972;-93
2022/11/04 06:24:33;;;;;;;;;;;;;;;-148.88;98.84;75267.44;5077506;28;19908;-93
2022/11/04 06:26:59;;;;;;;;;;;;;;;-148.88;99.02;75285.69;5075043;28;19916;-92
2022/11/04 06:29:24;;;;;;;;;;;;;;;-148.88;99.44;75293.81;5075335;28;19959;-92
2022/11/04 06:31:50;;;;;;;;;;;;;;;-148.88;99.80;75312.09;5074641;28;19946;-92
2022/11/04 06:34:15;;;;;;;;;;;;;;;-148.88;100.00;75318.19;5074270;28;19934;-91
2022/11/04 06:36:40;;;;;;;;;;;;;;;-148.88;100.00;75328.34;5075384;28;20003;-92
2022/11/04 06:39:05;;;;;;;;;;;;;;;-148.88;100.00;75324.28;5074348;28;19955;-92
2022/11/04 06:41:31;;;;;;;;;;;;;;;-148.88;100.00;75324.28;5056052;28;19915;-92
2022/11/04 06:43:56;;;;;;;;;;;;;;;-148.88;100.00;75316.16;5074382;28;20409;-92
2022/11/04 06:46:30;;;;;;;;;;;;;;;-148.88;100.00;75322.25;5056419;28;19919;-91
2022/11/04 06:48:56;;;;;;;;;;;;;;;-148.88;100.00;75322.25;5056971;28;19966;-93
2022/11/04 06:51:21;;;;;;;;;;;;;;;-148.88;100.00;75314.13;5074102;28;19924;-91
2022/11/04 06:53:46;;;;;;;;;;;;;;;-148.88;100.00;75330.38;5073713;28;19908;-93
2022/11/04 06:56:12;;;;;;;;;;;;;;;-148.88;100.00;75324.28;5075355;28;20302;-92
2022/11/04 06:58:37;;;;;;;;;;;;;;;-148.88;100.00;75324.28;5075125;28;20002;-92
2022/11/04 07:01:02;;;;;;;;;;;;;;;-148.88;100.00;75340.53;5074991;28;19908;-93
2022/11/04 07:03:28;;;;;;;;;;;;;;;-148.88;100.00;75338.50;5056740;28;19916;-92
2022/11/04 07:05:54;;;;;;;;;;;;;;;-148.88;100.00;75338.50;5074285;28;19919;-92
2022/11/04 07:08:20;;;;;;;;;;;;;;;-148.88;100.00;75342.56;5074211;28;19916;-92
2022/11/04 07:10:45;;;;;;;;;;;;;;;-148.88;100.00;75330.38;5073613;28;19908;-91
2022/11/04 07:13:10;;;;;;;;;;;;;;;-148.88;100.00;75332.41;5074704;28;19943;-92
2022/11/04 07:15:36;;;;;;;;;;;;;;;-148.88;100.00;75334.44;5076309;28;19954;-93
2022/11/04 07:18:02;;;;;;;;;;;;;;;-148.88;100.00;75346.63;5078628;28;19909;-92
2022/11/04 07:20:27;;;;;;;;;;;;;;;-148.88;100.00;75342.56;5060630;28;19915;-92
2022/11/04 07:22:55;;;;;;;;;;;;;;;-148.88;100.00;75342.56;5062193;28;19940;-92
2022/11/04 07:25:21;;;;;;;;;;;;;;;-148.88;100.00;75338.50;5078998;28;19947;-92
2022/11/04 07:27:46;;;;;;;;;;;;;;;-148.88;100.00;75342.56;5060377;28;19939;-91
2022/11/04 07:30:11;;;;;;;;;;;;;;;-148.88;100.00;75330.38;5062886;28;19923;-93
2022/11/04 07:32:37;;;;;;;;;;;;;;;-148.88;100.00;75342.56;5059641;28;20294;-93
2022/11/04 07:35:02;;;;;;;;;;;;;;;-148.88;100.00;75346.63;5077725;28;19968;-93
2022/11/04 07:37:27;;;;;;;;;;;;;;;-148.88;100.00;75346.63;5060372;28;19968;-93
2022/11/04 07:39:52;;;;;;;;;;;;;;;-148.88;100.00;75352.72;5077882;28;20003;-93
2022/11/04 07:42:18;;;;;;;;;;;;;;;-148.88;100.00;75350.69;5077796;28;20007;-86
2022/11/04 07:44:43;;;;;;;;;;;;;;;-148.88;100.00;75342.56;5078018;28;20066;-93
2022/11/04 07:47:08;;;;;;;;;;;;;;;-148.88;100.00;75354.75;5080718;28;19916;-92
2022/11/04 07:49:33;;;;;;;;;;;;;;;-148.88;100.00;75354.75;5086887;28;19969;-93
2022/11/04 07:51:58;;;;;;;;;;;;;;;-148.88;100.00;75360.84;5078995;28;19966;-92
2022/11/04 07:54:24;;;;;;;;;;;;;;;-148.88;100.00;75368.97;5060969;28;20409;-92
2022/11/04 07:56:49;;;;;;;;;;;;;;;-148.88;100.00;75371.00;5061772;28;19916;-93
2022/11/04 07:59:14;;;;;;;;;;;;;;;-148.88;100.00;75358.81;5059997;28;19909;-92
2022/11/04 08:01:39;;;;;;;;;;;;;;;-148.88;100.00;75356.78;5059927;28;19976;-92
2022/11/04 08:04:06;;;;;;;;;;;;;;;-148.88;100.00;75350.69;5060983;28;20422;-92
2022/11/04 08:06:31;;;;;;;;;;;;;;;-148.88;100.00;75354.75;5059078;28;19920;-92
2022/11/04 08:08:57;;;;;;;;;;;;;;;-148.88;100.00;75350.69;5077304;28;19908;-93
2022/11/04 08:11:27;;;;;;;;;;;;;;;-148.88;100.00;75342.56;5077118;28;19995;-92
2022/11/04 08:13:52;;;;;;;;;;;;;;;-148.88;100.00;75336.47;5076929;28;19908;-91
2022/11/04 08:16:19;;;;;;;;;;;;;;;-148.88;100.00;75334.44;5078116;28;19938;-92
2022/11/04 08:18:45;;;;;;;;;;;;;;;-148.88;100.00;75332.41;5077404;28;19908;-92
2022/11/04 08:21:10;;;;;;;;;;;;;;;-148.88;98.81;75338.50;5060571;28;19908;-91
2022/11/04 08:23:35;;;;;;;;;;;;;;;-148.88;98.41;75338.50;5060590;28;19915;-93
2022/11/04 08:26:01;;;;;;;;;;;;;;;-148.88;97.95;75338.50;5077213;28;19908;-91
2022/11/04 08:28:26;;;;;;;;;;;;;;;-148.88;96.80;75338.50;5077139;28;19912;-92
2022/11/04 08:30:51;;;;;;;;;;;;;;;-148.88;96.52;75340.53;5077318;28;19908;-92
2022/11/04 08:33:16;;;;;;;;;;;;;;;-148.88;96.66;75338.50;5077404;28;19929;-93
2022/11/04 08:35:42;;;;;;;;;;;;;;;-148.88;97.42;75334.44;5076992;28;19908;-91
2022/11/04 08:38:07;;;;;;;;;;;;;;;-148.88;97.54;75338.50;5077156;28;19908;-92
2022/11/04 08:40:32;;;;;;;;;;;;;;;-148.88;98.41;75344.59;5077481;28;19915;-93
2022/11/04 08:42:58;;;;;;;;;;;;;;;-148.88;98.64;75354.75;5077654;28;19915;-93
2022/11/04 08:45:23;;;;;;;;;;;;;;;-148.88;98.26;75350.69;5059818;28;19908;-92
2022/11/04 08:47:49;;;;;;;;;;;;;;;-148.88;98.23;75354.75;5081041;28;19912;-93
2022/11/04 08:50:14;;;;;;;;;;;;;;;-148.88;98.20;75346.63;5080717;28;20002;-92
2022/11/04 08:52:39;;;;;;;;;;;;;;;-148.88;97.90;75346.63;5080669;28;19948;-91
2022/11/04 08:55:05;;;;;;;;;;;;;;;-148.88;98.58;75342.56;5081640;28;19908;-92
2022/11/04 08:57:30;;;;;;;;;;;;;;;-148.88;98.49;75342.56;5078559;28;19920;-92
2022/11/04 08:59:55;;;;;;;;;;;;;;;-148.88;97.97;75342.56;5079791;28;19916;-92
2022/11/04 09:02:21;;;;;;;;;;;;;;;-148.88;97.54;75342.56;5082112;28;19912;-94
2022/11/04 09:04:46;;;;;;;;;;;;;;;-148.88;97.32;75342.56;5079424;28;20359;-91
2022/11/04 09:07:11;;;;;;;;;;;;;;;-148.88;97.44;75350.69;5077574;28;20263;-91
2022/11/04 09:09:38;;;;;;;;;;;;;;;-148.88;97.84;75354.75;5077236;28;20397;-93
2022/11/04 09:12:03;;;;;;;;;;;;;;;-148.88;96.99;75354.75;5076261;28;19912;-93
2022/11/04 09:14:28;;;;;;;;;;;;;;;-148.88;96.91;75354.75;5058202;28;20008;-92
2022/11/04 09:16:54;;;;;;;;;;;;;;;-148.88;96.79;75338.50;5076058;28;20367;-92
2022/11/04 09:19:19;;;;;;;;;;;;;;;-148.88;96.38;75324.28;5076433;28;20294;-93
2022/11/04 09:21:45;;;;;;;;;;;;;;;-148.88;95.88;75289.75;5057755;28;19908;-92
2022/11/04 09:24:11;;;;;;;;;;;;;;;-148.88;94.82;75285.69;5076202;28;19957;-93
2022/11/04 09:26:36;;;;;;;;;;;;;;;-148.88;93.45;75287.72;5076116;28;19917;-92
2022/11/04 09:29:01;;;;;;;;;;;;;;;-148.88;94.36;75285.69;5074636;28;19915;-92
2022/11/04 09:31:27;;;;;;;;;;;;;;;-148.88;94.12;75281.66;5057133;28;19909;-91
2022/11/04 09:33:53;;;;;;;;;;;;;;;-148.88;93.67;75277.59;5074696;28;19943;-92
2022/11/04 09:36:18;;;;;;;;;;;;;;;-148.88;92.08;75253.22;5075551;28;19915;-92
2022/11/04 09:38:43;;;;;;;;;;;;;;;-148.88;91.22;75241.03;5074964;28;19908;-93
2022/11/04 09:41:26;;;;;;;;;;;;;;;-148.88;90.39;75249.16;5078331;28;19935;-93
2022/11/04 09:44:03;;;;;;;;;;;;;;;-148.88;91.11;75222.75;5076258;28;19985;-93
2022/11/04 09:46:29;;;;;;;;;;;;;;;-148.88;90.85;75216.66;5075213;28;19959;-93
2022/11/04 09:48:55;;;;;;;;;;;;;;;-148.88;89.20;75208.53;5075939;28;19908;-92
2022/11/04 09:51:24;;;;;;;;;;;;;;;-148.88;89.03;75204.47;5076736;28;19908;-92
2022/11/04 09:54:10;;;;;;;;;;;;;;;-148.88;87.66;75224.78;5076192;28;19908;-93
2022/11/04 09:56:42;;;;;;;;;;;;;;;-148.88;88.38;75208.53;5075702;28;19908;-91
2022/11/04 09:59:08;;;;;;;;;;;;;;;-148.88;88.26;75224.78;5076556;28;19916;-93
2022/11/04 10:01:41;;;;;;;;;;;;;;;-148.88;88.44;75214.63;5075402;28;20375;-91
2022/11/04 10:04:06;;;;;;;;;;;;;;;-148.88;87.11;75208.53;5076788;28;20362;-92
2022/11/04 10:06:40;;;;;;;;;;;;;;;-148.88;87.64;75190.25;5057381;28;19913;-91
2022/11/04 10:09:24;;;;;;;;;;;;;;;-148.88;86.10;75151.66;5074722;28;19909;-92
2022/11/04 10:12:03;;;;;;;;;;;;;;;-148.88;85.24;75147.59;5077129;28;19914;-92
2022/11/04 10:14:35;;;;;;;;;;;;;;;-148.88;84.36;75180.09;5061938;28;19908;-92
2022/11/04 10:17:12;;;;;;;;;;;;;;;-148.88;83.09;75155.72;5078513;28;20388;-92
2022/11/04 10:19:40;;;;;;;;;;;;;;;-148.88;82.58;75143.53;5077803;28;19912;-92
2022/11/04 10:22:20;;;;;;;;;;;;;;;-148.88;83.80;75202.44;5077745;28;19908;-91
2022/11/04 10:24:48;;;;;;;;;;;;;;;-148.88;84.03;75200.41;5075324;28;19908;-92
2022/11/04 10:27:28;;;;;;;;;;;;;;;-148.88;85.47;75228.84;5056071;28;19912;-92
2022/11/04 10:29:57;;;;;;;;;;;;;;;-148.88;86.04;75253.22;5074848;28;19931;-92
2022/11/04 10:32:46;;;;;;;;;;;;;;;-148.88;86.15;75259.31;5075305;28;20446;-92
2022/11/04 10:35:20;;;;;;;;;;;;;;;-148.88;86.37;75269.47;5075235;28;19955;-91
2022/11/04 10:37:47;;;;;;;;;;;;;;;-148.88;86.67;75269.47;5074282;28;19952;-92
2022/11/04 10:40:35;;;;;;;;;;;;;;;-148.88;86.74;75277.59;5074198;28;19912;-92
2022/11/04 10:43:03;;;;;;;;;;;;;;;-148.88;87.78;75257.28;5075235;28;20379;-93
2022/11/04 10:45:35;;;;;;;;;;;;;;;-148.88;86.32;75224.78;5075374;28;19919;-93
2022/11/04 10:48:07;;;;;;;;;;;;;;;-148.88;87.23;75245.09;5056494;28;19962;-92
2022/11/04 10:50:38;;;;;;;;;;;;;;;-148.88;86.94;75232.91;5081155;28;19908;-93
2022/11/04 10:53:21;;;;;;;;;;;;;;;-148.88;87.21;75243.06;5083074;28;19992;-93
2022/11/04 10:55:55;;;;;;;;;;;;;;;-148.88;86.47;75228.84;5084739;28;19915;-92
2022/11/04 10:58:23;;;;;;;;;;;;;;;-148.88;87.08;75241.03;5084432;28;19908;-93
2022/11/04 11:00:49;;;;;;;;;;;;;;;-148.88;87.01;75228.84;5083312;28;21481;-92
2022/11/04 11:03:23;;;;;;;;;;;;;;;-148.88;86.09;75249.16;5067279;28;19919;-92
2022/11/04 11:05:50;;;;;;;;;;;;;;;-148.88;87.45;75261.34;5081736;28;19951;-92
2022/11/04 11:08:26;;;;;;;;;;;;;;;-148.88;88.23;75273.53;5082313;28;19912;-92
2022/11/04 11:10:51;;;;;;;;;;;;;;;-148.88;88.61;75273.53;5082859;28;19908;-92
2022/11/04 11:13:26;;;;;;;;;;;;;;;-148.88;88.68;75277.59;5081204;28;19915;-92
2022/11/04 11:16:03;;;;;;;;;;;;;;;-148.88;88.87;75291.78;5081414;28;19909;-92
2022/11/04 11:18:28;;;;;;;;;;;;;;;-148.88;88.53;75283.66;5080208;28;19951;-91
2022/11/04 11:21:06;;;;;;;;;;;;;;;-148.88;88.71;75277.59;5079874;28;20302;-93
2022/11/04 11:23:37;;;;;;;;;;;;;;;-148.88;88.23;75273.53;5080149;28;19916;-92
2022/11/04 11:26:03;;;;;;;;;;;;;;;-148.88;88.14;75265.41;5079937;28;19908;-92
2022/11/04 11:28:28;;;;;;;;;;;;;;;-148.88;88.19;75251.19;5063229;28;19962;-91
2022/11/04 11:30:54;;;;;;;;;;;;;;;-148.88;88.07;75253.22;5080539;28;19944;-92
2022/11/04 11:33:23;;;;;;;;;;;;;;;-148.88;86.89;75220.72;5080853;28;20096;-93
2022/11/04 11:35:53;;;;;;;;;;;;;;;-148.88;86.42;75176.03;5081107;28;19912;-93
2022/11/04 11:38:29;;;;;;;;;;;;;;;-148.88;84.31;75147.59;5063364;28;19908;-91
2022/11/04 11:41:10;;;;;;;;;;;;;;;-148.88;84.26;75167.91;5080246;28;19908;-91
2022/11/04 11:43:37;;;;;;;;;;;;;;;-148.88;83.66;75131.34;5080712;28;19954;-92
2022/11/04 11:46:02;;;;;;;;;;;;;;;-148.88;83.49;75119.16;5080418;28;19908;-92
2022/11/04 11:48:30;;;;;;;;;;;;;;;-148.88;82.15;75111.03;5080332;28;19912;-92
2022/11/04 11:50:59;;;;;;;;;;;;;;;-148.88;80.62;75082.63;5081065;28;20012;-88
2022/11/04 11:53:25;;;;;;;;;;;;;;;-148.88;79.89;75106.97;5081672;28;19915;-93
2022/11/04 11:55:51;;;;;;;;;;;;;;;-148.88;80.23;75143.53;5080880;28;20392;-90
2022/11/04 11:58:36;;;;;;;;;;;;;;;-148.88;81.24;75149.63;5062371;28;20286;-90
2022/11/04 12:01:05;;;;;;;;;;;;;;;-148.88;83.04;75163.84;5077829;28;19908;-90
2022/11/04 12:03:42;;;;;;;;;;;;;;;-148.88;83.89;75151.66;5078126;28;19976;-90
2022/11/04 12:06:26;;;;;;;;;;;;;;;-148.88;82.88;75119.16;5077023;28;20389;-90
2022/11/04 12:08:51;;;;;;;;;;;;;;;-148.88;81.10;75113.06;5059674;28;20003;-91
2022/11/04 12:11:35;;;;;;;;;;;;;;;-148.88;80.65;75098.84;5077516;28;19944;-89
2022/11/04 12:14:05;;;;;;;;;;;;;;;-148.88;80.42;75070.44;5059915;28;19919;-93
2022/11/04 12:16:51;;;;;;;;;;;;;;;-148.88;79.68;75066.38;5076928;28;20007;-93
2022/11/04 12:19:30;;;;;;;;;;;;;;;-148.88;78.77;75076.53;5077567;28;19909;-93
2022/11/04 12:22:03;;;;;;;;;;;;;;;-148.88;79.79;75076.53;5077527;28;20302;-93
2022/11/04 12:24:31;;;;;;;;;;;;;;;-148.88;78.92;75074.50;5078537;28;19916;-93
2022/11/04 12:27:20;;;;;;;;;;;;;;;-148.88;79.17;75062.31;5077075;28;19912;-92
2022/11/04 12:29:45;;;;;;;;;;;;;;;-148.88;78.98;75074.50;5058963;28;19908;-92
2022/11/04 12:32:17;;;;;;;;;;;;;;;-148.88;80.56;75111.03;5076720;28;19915;-90
2022/11/04 12:34:44;;;;;;;;;;;;;;;-148.88;81.04;75131.34;5058929;28;19977;-93
2022/11/04 12:37:21;;;;;;;;;;;;;;;-148.88;81.34;75151.66;5077886;28;20370;-93
2022/11/04 12:39:46;;;;;;;;;;;;;;;-148.88;81.73;75151.66;5059626;28;19916;-92
2022/11/04 12:42:37;;;;;;;;;;;;;;;-148.88;81.85;75153.69;5077514;28;20282;-92
2022/11/04 12:45:23;;;;;;;;;;;;;;;-148.88;81.52;75135.41;5077555;28;19915;-93
2022/11/04 12:47:49;;;;;;;;;;;;;;;-148.88;80.75;75102.91;5059463;28;19912;-93
2022/11/04 12:50:33;;;;;;;;;;;;;;;-148.88;79.36;75102.91;5080101;28;19909;-92
2022/11/04 12:53:11;;;;;;;;;;;;;;;-148.88;79.47;75100.88;5062670;28;19931;-93
2022/11/04 12:55:54;;;;;;;;;;;;;;;-148.88;78.90;75096.81;5076746;28;19908;-92
2022/11/04 12:58:31;;;;;;;;;;;;;;;-148.88;78.17;75070.44;5077755;28;19908;-92
2022/11/04 13:01:00;;;;;;;;;;;;;;;-148.88;77.73;75096.81;5077605;28;20006;-92
2022/11/04 13:03:47;;;;;;;;;;;;;;;-148.88;78.38;75106.97;5079220;28;19916;-92